KCBK/CBK METAR and TAF weather

Enter ICAO airport designator
Station Type Date Time Source
KCBK METAR 2019/08/21 22:15 UTC NOAA

KCBK 212215Z AUTO 07007KT 10SM SCT044 28/15 A3006 RMK AO2 PWINO


Station Type Date Time Source
KCBK Decoded METAR 2019/08/21 22:15 UTC NOAA

Station name not available
Aug 21, 2019 - 06:15 PM EDT / 2019.08.21 2215 UTC
Wind: from the ENE (070 degrees) at 8 MPH (7 KT):0
Visibility: 10 mile(s):0
Sky conditions: partly cloudy
Temperature: 82 F (28 C)
Dew Point: 59 F (15 C)
Relative Humidity: 45%
Pressure (altimeter): 30.06 in. Hg (1017 hPa)
ob: KCBK 212215Z AUTO 07007KT 10SM SCT044 28/15 A3006 RMK AO2 PWINO
cycle: 22

Station Type Date Time Source
KCBK TAF UTC NOAA

Error!

Example: see airport list